Airborne Airpark
KILN : now visible

Airfield :











YOU CAN JOIN US ON...

 
LOGIN :

Register | Disclaimer

   EN    FR    IT 

 









Legend :    VFR   Marginal VFR   IFR   Intensive IFR   Very Intensive IFR
Visi :
Ceiling :
>= 8 km
>= 3000ft
5 to 8 km
1000 to 3000 ft
1500m to 5 km
500 to 1000 ft
800 to 1500m
200 to 500 ft
< 800m
< 200 ft
Symbols :   Thunderstorms  Fog  Heavy snow  Heavy precipitations  Wind > 20 kt






- Airport Elevation : 1077 ft


KILN - Airborne Airpark

CURRENT METAR :
  • 151254Z AUTO 24010KT 6SM HZ CLR 26/23 A2998 RMK AO2 SLP141 T02610228

EXPIRED METARs :
  • 151154Z AUTO 25008KT 6SM HZ FEW028 24/22 A3000 RMK AO2 SLP148 70057 T02440217 10244 20217 53006
  • 151054Z AUTO 23007KT 6SM BR CLR 23/21 A2999 RMK AO2 SLP145 T02280211
  • 150954Z AUTO 23006KT 8SM CLR 22/21 A2998 RMK AO2 SLP145 T02220206
  • 150854Z AUTO 23007KT 9SM CLR 22/20 A2998 RMK AO2 SLP146 T02220200 56009

TAF KILN
Valid from the 15 at 12:00 until the 16 at 12:00 UTC


151131Z 1512/1612 23009KT P6SM SCT025 BKN150
FM151500 23012G20KT P6SM FEW025 SCT150
FM152100 24015G25KT P6SM VCTS BKN040CB
TEMPO 1522/1601 5SM -TSRA
FM160100 22007KT P6SM VCSH SCT040 BKN200
FM160400 22009KT P6SM SCT150 BKN250
FM160900 22009KT P6SM VCSH SCT025 BKN250
KZID FIR / North America



MET'MAP, your aeronautical weather chart ! - Copyright ORBIFLY December 2007 - Disclaimer

ORBIFLY MET'MAP TEAM :

Programming & Development : Alexandra Zaïnal
Original concept : Baudouin d'Aumeries
Technical & hardware support : Manuel Goepfert
Assistance : Marc-Olivier Méhu




SOURCES & CREDITS :

   NOAA       Earth
Advisory